createdAt,value
2023-02-14T00:00:07.987Z,4.72
2023-02-14T00:06:16.909Z,4.82
2023-02-14T00:12:19.122Z,4.86
2023-02-14T00:18:21.306Z,4.77
2023-02-14T00:24:26.512Z,4.76
2023-02-14T00:30:28.751Z,4.95
2023-02-14T00:36:31.521Z,5.03
2023-02-14T00:42:34.060Z,4.84
2023-02-14T00:48:36.105Z,4.96
2023-02-14T00:54:38.160Z,5.17
2023-02-14T01:00:40.370Z,5.10
2023-02-14T01:06:42.637Z,5.09
2023-02-14T01:12:44.681Z,5.12
2023-02-14T01:18:47.905Z,5.06
2023-02-14T01:24:51.514Z,5.06
2023-02-14T01:30:53.598Z,5.15
2023-02-14T01:36:55.820Z,4.87
2023-02-14T01:42:59.081Z,4.93
2023-02-14T01:49:16.683Z,4.87
2023-02-14T01:55:25.647Z,4.94
2023-02-14T02:01:32.904Z,4.90
2023-02-14T02:07:36.779Z,4.86
2023-02-14T02:13:38.883Z,4.76
2023-02-14T02:19:59.660Z,4.66
2023-02-14T02:26:33.845Z,4.61
2023-02-14T02:33:03.860Z,4.74
2023-02-14T02:39:34.634Z,4.34
2023-02-14T02:46:17.071Z,4.44
2023-02-14T02:53:07.201Z,4.44
2023-02-14T02:59:35.011Z,4.49
2023-02-14T03:05:38.243Z,4.30
2023-02-14T03:12:05.945Z,4.37
2023-02-14T03:18:56.305Z,4.37
2023-02-14T03:25:11.731Z,4.33
2023-02-14T03:31:33.907Z,4.14
2023-02-14T03:37:38.046Z,4.11
2023-02-14T03:43:47.511Z,3.89
2023-02-14T03:50:15.745Z,3.70
2023-02-14T03:56:29.936Z,3.88
2023-02-14T04:02:56.657Z,3.98
2023-02-14T04:08:58.832Z,3.82
2023-02-14T04:15:00.969Z,3.83
2023-02-14T04:21:03.098Z,3.81
2023-02-14T04:27:13.560Z,3.89
2023-02-14T04:33:16.058Z,3.60
2023-02-14T04:39:18.137Z,3.56
2023-02-14T04:45:20.427Z,3.20
2023-02-14T04:51:22.838Z,3.23
2023-02-14T04:57:25.186Z,3.55
2023-02-14T05:03:27.278Z,3.33
2023-02-14T05:09:29.669Z,3.36
